Time;durP1;ratioP1;P1;durP2;ratioP2;P2;SDS_P1;SDS_P2;PMS_P1;PMS_P2;Temp;Humidity;BMP_temperature;BMP_pressure;BME280_temperature;BME280_humidity;BME280_pressure;Samples;Min_cycle;Max_cycle;Signal;HPM_P1;HPM_P2
2022/11/02 00:01:34;;;;;;;4.93;0.50;;;12.80;99.90;;;;;;4924971;29;20099;-88
2022/11/02 00:04:52;;;;;;;6.15;0.80;;;12.80;99.90;;;;;;4937634;29;20054;-85
2022/11/02 00:08:26;;;;;;;;;;;;;;;;;;;;;
2022/11/02 00:11:32;;;;;;;4.80;0.60;;;12.60;99.90;;;;;;4940036;29;20111;-86
2022/11/02 00:14:46;;;;;;;;;;;;;;;;;;;;;
2022/11/02 00:18:23;;;;;;;6.85;0.70;;;12.50;99.90;;;;;;4937414;29;20074;-88
2022/11/02 00:21:36;;;;;;;5.35;0.90;;;13.50;99.90;;;;;;4908802;29;20094;-89
2022/11/02 00:24:49;;;;;;;;;;;;;;;;;;;;;
2022/11/02 00:28:25;;;;;;;6.28;0.75;;;12.60;99.90;;;;;;5033943;28;20052;-85
2022/11/02 00:31:29;;;;;;;5.45;0.63;;;13.60;99.90;;;;;;5002223;28;20049;-86
2022/11/02 00:34:59;;;;;;;5.45;0.50;;;12.60;99.90;;;;;;5046466;28;20060;-87
2022/11/02 00:38:30;;;;;;;1.67;0.35;;;12.70;99.90;;;;;;5033457;28;20139;-87
2022/11/02 00:42:06;;;;;;;;;;;;;;;;;;;;;
2022/11/02 00:45:28;;;;;;;3.65;0.73;;;12.30;99.90;;;;;;5001198;28;20060;-87
2022/11/02 00:48:33;;;;;;;2.97;0.30;;;12.20;99.90;;;;;;5026878;28;20528;-87
2022/11/02 00:51:58;;;;;;;;;;;;;;;;;;;;;
2022/11/02 00:55:22;;;;;;;;;;;;;;;;;;;;;
2022/11/02 00:58:34;;;;;;;1.23;0.30;;;11.90;99.90;;;;;;5048019;28;20037;-88
2022/11/02 01:01:33;;;;;;;1.10;0.38;;;11.80;99.90;;;;;;5035825;28;20107;-87
2022/11/02 01:04:46;;;;;;;2.60;0.40;;;11.70;99.90;;;;;;4996499;28;20052;-87
2022/11/02 01:08:04;;;;;;;;;;;;;;;;;;;;;
2022/11/02 01:11:50;;;;;;;;;;;;;;;;;;;;;
2022/11/02 01:15:07;;;;;;;0.55;0.30;;;11.70;99.90;;;;;;5051845;28;20119;-88
2022/11/02 01:18:42;;;;;;;1.88;0.20;;;11.60;99.90;;;;;;5060037;28;20418;-88
2022/11/02 01:22:06;;;;;;;;;;;;;;;;;;;;;
2022/11/02 01:25:18;;;;;;;1.38;0.30;;;11.50;99.90;;;;;;5052068;28;20059;-87
2022/11/02 01:28:24;;;;;;;3.40;0.32;;;11.40;99.90;;;;;;4985102;28;20060;-89
2022/11/02 01:31:51;;;;;;;2.45;0.30;;;11.40;99.90;;;;;;5051274;28;20053;-88
2022/11/02 01:34:37;;;;;;;2.92;0.22;;;11.30;99.90;;;;;;5072261;28;20041;-88
2022/11/02 01:38:02;;;;;;;0.52;0.20;;;11.30;99.90;;;;;;5078479;28;20035;-87
2022/11/02 01:41:21;;;;;;;;;;;;;;;;;;;;;
2022/11/02 01:44:32;;;;;;;1.65;0.20;;;11.20;99.90;;;;;;5078261;28;20063;-85
2022/11/02 01:47:56;;;;;;;1.38;0.30;;;11.10;99.90;;;;;;5073906;28;20085;-87
2022/11/02 01:51:36;;;;;;;;;;;;;;;;;;;;;
2022/11/02 01:54:49;;;;;;;0.70;0.28;;;11.20;99.90;;;;;;5051660;28;20049;-87
2022/11/02 01:58:02;;;;;;;2.17;0.30;;;12.00;99.90;;;;;;4993626;28;20057;-91
2022/11/02 02:01:32;;;;;;;1.10;0.30;;;11.20;99.90;;;;;;5044791;28;20406;-89
2022/11/02 02:05:08;;;;;;;2.63;0.30;;;11.30;99.90;;;;;;5043916;28;20498;-87
2022/11/02 02:12:03;;;;;;;2.20;0.30;;;11.20;99.90;;;;;;5050358;28;20075;-89
2022/11/02 02:14:58;;;;;;;;;;;;;;;;;;;;;
2022/11/02 02:22:24;;;;;;;;;;;;;;;;;;;;;
2022/11/02 02:25:56;;;;;;;1.33;0.20;;;11.00;99.90;;;;;;5001311;28;20045;-89
2022/11/02 02:29:41;;;;;;;;;;;;;;;;;;;;;
2022/11/02 02:33:09;;;;;;;0.10;0.10;;;10.80;99.90;;;;;;4974894;23;20067;-89
2022/11/02 02:44:54;;;;;;;;;;;;;;;;;;;;;
2022/11/02 02:48:18;;;;;;;;;;;;;;;;;;;;;
2022/11/02 02:51:04;;;;;;;1.92;0.52;;;10.70;99.90;;;;;;4825306;29;20066;-88
2022/11/02 02:54:27;;;;;;;2.45;0.50;;;10.70;99.90;;;;;;4839762;29;20065;-88
2022/11/02 02:58:06;;;;;;;1.13;0.32;;;10.70;99.90;;;;;;4826659;29;20054;-87
2022/11/02 03:01:33;;;;;;;1.38;0.50;;;10.60;99.90;;;;;;4818770;29;20166;-88
2022/11/02 03:04:36;;;;;;;1.73;0.55;;;10.60;99.90;;;;;;4811434;29;20127;-88
2022/11/02 03:08:16;;;;;;;;;;;;;;;;;;;;;
2022/11/02 03:11:56;;;;;;;3.85;0.57;;;10.80;99.90;;;;;;4847190;29;20526;-91
2022/11/02 03:15:25;;;;;;;3.95;0.50;;;10.90;99.90;;;;;;4830236;29;20570;-87
2022/11/02 03:18:49;;;;;;;1.90;0.40;;;11.00;99.90;;;;;;4955544;28;20057;-88
2022/11/02 03:22:18;;;;;;;4.13;0.40;;;11.00;99.90;;;;;;4958601;28;20131;-89
2022/11/02 03:26:29;;;;;;;;;;;;;;;;;;;;;
2022/11/02 03:30:18;;;;;;;;;;;;;;;;;;;;;
2022/11/02 03:34:06;;;;;;;1.60;0.35;;;10.90;99.90;;;;;;5010890;28;20538;-88
2022/11/02 03:37:30;;;;;;;1.17;0.35;;;10.90;99.90;;;;;;5009671;28;20091;-87
2022/11/02 03:41:04;;;;;;;;;;;;;;;;;;;;;
2022/11/02 03:43:44;;;;;;;3.03;0.40;;;10.80;99.90;;;;;;4996537;28;20049;-88
2022/11/02 03:47:16;;;;;;;0.85;0.30;;;10.80;99.90;;;;;;5030023;28;20121;-89
2022/11/02 03:50:41;;;;;;;1.98;0.63;;;10.80;99.90;;;;;;5012644;28;20157;-87
2022/11/02 03:54:22;;;;;;;;;;;;;;;;;;;;;
2022/11/02 03:57:57;;;;;;;;;;;;;;;;;;;;;
2022/11/02 04:01:26;;;;;;;6.47;0.85;;;10.80;99.90;;;;;;4977009;28;20054;-87
2022/11/02 04:04:44;;;;;;;;;;;;;;;;;;;;;
2022/11/02 04:14:46;;;;;;;4.53;0.50;;;10.10;99.90;;;;;;5027148;28;20545;-89
2022/11/02 04:25:14;;;;;;;5.88;0.65;;;10.60;99.90;;;;;;5035108;28;20088;-88
2022/11/02 04:25:18;;;;;;;3.22;0.65;;;11.00;99.90;;;;;;5031618;28;20060;-92
2022/11/02 04:28:34;;;;;;;5.68;0.40;;;10.60;99.90;;;;;;5028340;28;20132;-87
2022/11/02 04:32:01;;;;;;;3.20;0.40;;;10.60;99.90;;;;;;5034632;28;20489;-88
2022/11/02 04:35:07;;;;;;;2.90;0.55;;;10.60;99.90;;;;;;5016755;28;20560;-90
2022/11/02 04:42:10;;;;;;;;;;;;;;;;;;;;;
2022/11/02 04:45:13;;;;;;;5.05;0.40;;;10.80;99.90;;;;;;5029339;28;20041;-88
2022/11/02 04:48:34;;;;;;;2.80;0.60;;;10.70;99.90;;;;;;5028673;28;20521;-90
2022/11/02 04:51:25;;;;;;;5.60;0.55;;;10.70;99.90;;;;;;5001132;28;20061;-87
2022/11/02 04:54:46;;;;;;;;;;;;;;;;;;;;;
2022/11/02 04:57:30;;;;;;;1.67;0.30;;;11.70;99.90;;;;;;4981169;28;20576;-87
2022/11/02 05:00:38;;;;;;;;;;;;;;;;;;;;;
2022/11/02 05:04:04;;;;;;;6.25;0.70;;;10.70;99.90;;;;;;5022365;28;20045;-87
2022/11/02 05:07:35;;;;;;;2.95;0.38;;;10.80;99.90;;;;;;5033155;28;20517;-90
2022/11/02 05:11:00;;;;;;;2.50;0.40;;;10.70;99.90;;;;;;4983552;28;20099;-88
2022/11/02 05:13:51;;;;;;;2.22;0.47;;;10.60;99.90;;;;;;5031417;28;20052;-91
2022/11/02 05:17:00;;;;;;;;;;;;;;;;;;;;;
2022/11/02 05:20:34;;;;;;;;;;;;;;;;;;;;;
2022/11/02 05:23:51;;;;;;;2.03;0.50;;;10.60;99.90;;;;;;5036303;28;20168;-88
2022/11/02 05:26:51;;;;;;;3.17;0.40;;;11.40;99.90;;;;;;5034419;28;20041;-88
2022/11/02 05:29:58;;;;;;;0.90;0.40;;;10.70;99.90;;;;;;5013500;28;20060;-88
2022/11/02 05:33:14;;;;;;;;;;;;;;;;;;;;;
2022/11/02 05:36:34;;;;;;;4.35;0.80;;;10.70;99.90;;;;;;5022825;28;20120;-88
2022/11/02 05:40:14;;;;;;;;;;;;;;;;;;;;;
2022/11/02 05:43:05;;;;;;;7.32;0.93;;;10.60;99.90;;;;;;5001330;28;20051;-87
2022/11/02 05:46:33;;;;;;;2.47;0.47;;;10.60;99.90;;;;;;5007188;28;20526;-89
2022/11/02 05:50:09;;;;;;;2.13;0.50;;;10.60;99.90;;;;;;5013241;28;20380;-89
2022/11/02 05:53:36;;;;;;;;;;;;;;;;;;;;;
2022/11/02 05:56:34;;;;;;;3.40;0.60;;;10.60;99.90;;;;;;5000315;28;20100;-89
2022/11/02 06:00:01;;;;;;;;;;;;;;;;;;;;;
2022/11/02 06:03:27;;;;;;;;;;;;;;;;;;;;;
2022/11/02 06:06:51;;;;;;;;;;;;;;;;;;;;;
2022/11/02 06:14:06;;;;;;;6.13;1.40;;;10.70;99.90;;;;;;4992224;28;20082;-89
2022/11/02 06:17:32;;;;;;;;;;;;;;;;;;;;;
2022/11/02 06:21:33;;;;;;;;;;;;;;;;;;;;;
2022/11/02 06:25:30;;;;;;;3.83;0.63;;;10.80;99.90;;;;;;4991685;28;20052;-88
2022/11/02 06:28:51;;;;;;;3.70;0.90;;;10.90;99.90;;;;;;4990260;28;20042;-89
2022/11/02 06:32:08;;;;;;;10.20;0.90;;;10.30;99.90;;;;;;4971867;28;20052;-90
2022/11/02 06:44:27;;;;;;;;;;;;;;;;;;;;;
2022/11/02 06:47:38;;;;;;;2.95;0.60;;;10.80;99.90;;;;;;4897626;29;20076;-90
2022/11/02 06:50:32;;;;;;;2.58;0.50;;;10.70;99.90;;;;;;4913438;29;20054;-91
2022/11/02 06:53:33;;;;;;;7.40;1.30;;;10.70;99.90;;;;;;4927355;29;20126;-90
2022/11/02 07:03:45;;;;;;;3.58;0.50;;;10.60;99.90;;;;;;4888653;29;20049;-89
2022/11/02 07:06:47;;;;;;;1.45;0.47;;;10.60;99.90;;;;;;4874631;29;20056;-92
2022/11/02 07:09:37;;;;;;;3.60;0.50;;;10.70;99.90;;;;;;4880185;29;20048;-95
2022/11/02 07:12:46;;;;;;;3.50;0.35;;;10.90;99.90;;;;;;4879116;29;20067;-91
2022/11/02 07:15:46;;;;;;;2.40;0.40;;;10.70;99.90;;;;;;4902444;28;21621;-92
2022/11/02 07:18:52;;;;;;;5.13;0.80;;;11.00;99.90;;;;;;4945982;29;20047;-93
2022/11/02 07:21:54;;;;;;;7.10;0.43;;;10.70;99.90;;;;;;4931590;28;20768;-92
2022/11/02 07:25:03;;;;;;;;;;;;;;;;;;;;;
2022/11/02 07:27:58;;;;;;;8.90;1.65;;;10.40;99.90;;;;;;4937415;29;20055;-92
2022/11/02 07:31:45;;;;;;;3.03;0.55;;;10.80;99.90;;;;;;4874893;29;20116;-94
2022/11/02 07:34:45;;;;;;;3.70;0.40;;;10.70;99.90;;;;;;4877343;29;20075;-92
2022/11/02 07:37:52;;;;;;;2.30;0.30;;;10.70;99.90;;;;;;4878671;29;20197;-90
2022/11/02 07:40:58;;;;;;;2.25;0.30;;;10.60;99.90;;;;;;4922252;29;20053;-91
2022/11/02 07:44:06;;;;;;;3.25;0.28;;;10.70;99.90;;;;;;4927388;29;20056;-92
2022/11/02 07:47:01;;;;;;;;;;;;;;;;;;;;;
2022/11/02 07:50:20;;;;;;;;;;;;;;;;;;;;;
2022/11/02 07:53:12;;;;;;;3.22;0.30;;;10.70;99.90;;;;;;4992457;28;20061;-91
2022/11/02 07:56:11;;;;;;;4.88;0.50;;;10.30;99.90;;;;;;4971836;28;20061;-93
2022/11/02 07:58:59;;;;;;;5.88;0.82;;;10.60;99.90;;;;;;4997135;28;20041;-93
2022/11/02 08:02:15;;;;;;;2.72;0.40;;;10.60;99.90;;;;;;4998097;28;20525;-93
2022/11/02 08:05:21;;;;;;;6.25;0.50;;;10.60;99.90;;;;;;4980992;28;20093;-92
2022/11/02 08:08:24;;;;;;;2.78;0.43;;;10.70;99.90;;;;;;4954851;28;20518;-94
2022/11/02 08:11:33;;;;;;;3.95;0.52;;;10.80;99.90;;;;;;4956455;28;20054;-92
2022/11/02 08:14:20;;;;;;;2.15;0.30;;;10.90;99.90;;;;;;4974479;28;20116;-93
2022/11/02 08:17:16;;;;;;;4.35;0.70;;;11.00;99.90;;;;;;4996941;28;20061;-94
2022/11/02 08:20:24;;;;;;;5.05;0.40;;;11.20;99.90;;;;;;4993361;28;20062;-88
2022/11/02 08:23:10;;;;;;;4.50;0.40;;;11.30;99.90;;;;;;4984862;28;20038;-94
2022/11/02 08:26:27;;;;;;;1.60;0.38;;;11.40;99.90;;;;;;4996460;28;20081;-94
2022/11/02 08:29:38;;;;;;;3.72;0.50;;;11.50;99.90;;;;;;4995175;28;20050;-95
2022/11/02 08:32:37;;;;;;;1.63;0.40;;;11.60;99.90;;;;;;4991855;28;20042;-94
2022/11/02 08:35:43;;;;;;;;;;;;;;;;;;;;;
2022/11/02 08:38:56;;;;;;;2.88;0.40;;;11.50;99.90;;;;;;4990001;28;20042;-91
2022/11/02 08:48:38;;;;;;;1.70;0.40;;;11.70;99.90;;;;;;4995577;28;20133;-91
2022/11/02 08:51:32;;;;;;;5.70;0.40;;;11.70;99.90;;;;;;4995283;28;20126;-93
2022/11/02 08:54:33;;;;;;;4.18;0.52;;;11.90;99.90;;;;;;4977773;28;20061;-91
2022/11/02 08:58:01;;;;;;;1.35;0.30;;;12.00;99.90;;;;;;5003675;23;20061;-92
2022/11/02 09:00:52;;;;;;;5.30;0.60;;;12.00;99.90;;;;;;5024385;28;20060;-90
2022/11/02 09:04:09;;;;;;;0.55;0.28;;;12.20;99.90;;;;;;5011717;28;20041;-93
2022/11/02 09:07:26;;;;;;;;;;;;;;;;;;;;;
2022/11/02 09:10:32;;;;;;;4.67;0.40;;;12.40;99.90;;;;;;5014962;28;20442;-91
2022/11/02 09:13:06;;;;;;;5.55;0.45;;;12.50;99.90;;;;;;5015464;28;20049;-87
2022/11/02 09:15:35;;;;;;;3.50;1.05;;;12.50;99.90;;;;;;5026250;28;20042;-91
2022/11/02 09:18:05;;;;;;;3.78;0.47;;;12.40;99.90;;;;;;5021432;28;20099;-88
2022/11/02 09:20:34;;;;;;;6.22;0.80;;;12.40;99.90;;;;;;5031926;28;20048;-94
2022/11/02 09:23:06;;;;;;;12.38;0.68;;;12.50;99.90;;;;;;5023981;28;20038;-89
2022/11/02 09:25:40;;;;;;;4.95;0.30;;;12.40;99.90;;;;;;5050480;28;20070;-91
2022/11/02 09:28:07;;;;;;;5.50;0.70;;;12.50;99.90;;;;;;5037951;28;20105;-87
2022/11/02 09:30:35;;;;;;;5.18;0.75;;;12.50;99.90;;;;;;5025569;28;20022;-87
2022/11/02 09:33:03;;;;;;;3.03;0.40;;;12.60;99.90;;;;;;5010066;28;20025;-87
2022/11/02 09:35:36;;;;;;;5.63;0.50;;;12.50;99.90;;;;;;5023261;28;20050;-88
2022/11/02 09:38:25;;;;;;;4.00;0.50;;;12.50;99.90;;;;;;5042587;23;20072;-85
2022/11/02 09:45:08;;;;;;;3.80;0.30;;;12.50;99.90;;;;;;5017055;28;20200;-93
2022/11/02 09:48:10;;;;;;;3.22;0.60;;;12.60;99.90;;;;;;5010930;28;20052;-93
2022/11/02 09:51:32;;;;;;;3.05;0.45;;;12.90;99.90;;;;;;5013044;28;20157;-94
2022/11/02 09:54:55;;;;;;;3.38;0.40;;;12.70;99.90;;;;;;5020700;28;20060;-91
2022/11/02 09:58:25;;;;;;;3.92;0.40;;;12.70;99.90;;;;;;5026666;28;20041;-91
2022/11/02 10:01:59;;;;;;;;;;;;;;;;;;;;;
2022/11/02 10:05:05;;;;;;;;;;;;;;;;;;;;;
2022/11/02 10:08:23;;;;;;;2.90;0.52;;;12.60;99.90;;;;;;4937167;29;20046;-95
2022/11/02 10:11:33;;;;;;;;;;;;;;;;;;;;;
2022/11/02 10:14:39;;;;;;;4.13;0.68;;;13.00;99.90;;;;;;4921078;29;20044;-90
2022/11/02 10:17:49;;;;;;;7.70;0.73;;;13.20;99.90;;;;;;4918515;29;20044;-93
2022/11/02 10:21:02;;;;;;;;;;;;;;;;;;;;;
2022/11/02 10:24:18;;;;;;;9.13;0.55;;;13.40;99.90;;;;;;4939588;29;20086;-93
2022/11/02 10:30:47;;;;;;;4.10;0.40;;;13.40;99.90;;;;;;4948523;28;20052;-87
2022/11/02 10:33:52;;;;;;;4.20;0.40;;;13.30;99.90;;;;;;4955408;28;20051;-91
2022/11/02 10:36:50;;;;;;;1.95;0.40;;;13.40;99.90;;;;;;4959748;28;20146;-91
2022/11/02 10:39:46;;;;;;;7.68;0.63;;;13.40;99.90;;;;;;4942352;28;20032;-89
2022/11/02 10:43:12;;;;;;;3.85;0.50;;;13.50;99.90;;;;;;5004093;23;20061;-88
2022/11/02 10:46:26;;;;;;;4.15;0.55;;;13.70;99.90;;;;;;5018006;28;20042;-88
2022/11/02 10:50:14;;;;;;;;;;;;;;;;;;;;;
2022/11/02 10:53:17;;;;;;;3.80;0.65;;;13.90;99.90;;;;;;5000713;28;20081;-88
2022/11/02 10:56:52;;;;;;;3.13;0.40;;;14.00;99.90;;;;;;4994947;28;20069;-90
2022/11/02 10:59:34;;;;;;;2.67;0.30;;;14.00;99.90;;;;;;4992055;28;20081;-90
2022/11/02 11:02:29;;;;;;;3.42;0.32;;;14.00;99.90;;;;;;4988385;28;20507;-91
2022/11/02 11:05:26;;;;;;;2.47;0.30;;;14.00;99.90;;;;;;4976726;28;20046;-91
2022/11/02 11:08:15;;;;;;;;;;;;;;;;;;;;;
2022/11/02 11:11:25;;;;;;;5.35;0.40;;;13.90;99.90;;;;;;4976082;28;20057;-88
2022/11/02 11:14:33;;;;;;;2.92;0.40;;;13.90;99.90;;;;;;4974825;28;20423;-94
2022/11/02 11:17:33;;;;;;;2.63;0.35;;;14.00;99.90;;;;;;4968110;28;20058;-92
2022/11/02 11:20:37;;;;;;;4.45;0.52;;;13.90;99.90;;;;;;4993167;28;20105;-93
2022/11/02 11:23:43;;;;;;;3.38;0.40;;;14.00;99.90;;;;;;4986530;28;20042;-90
2022/11/02 11:27:09;;;;;;;0.80;0.30;;;13.90;99.90;;;;;;4990518;28;20073;-88
2022/11/02 11:30:36;;;;;;;;;;;;;;;;;;;;;
2022/11/02 11:33:39;;;;;;;;;;;;;;;;;;;;;
2022/11/02 11:36:43;;;;;;;2.47;0.60;;;13.70;99.90;;;;;;4987328;28;20042;-89
2022/11/02 11:40:07;;;;;;;1.67;0.30;;;13.60;99.90;;;;;;4969151;28;20086;-91
2022/11/02 11:43:19;;;;;;;3.88;0.45;;;13.40;99.90;;;;;;4973166;28;20062;-91
2022/11/02 11:46:10;;;;;;;3.10;0.50;;;13.40;99.90;;;;;;4993266;28;20049;-91
2022/11/02 11:49:40;;;;;;;1.35;0.28;;;13.30;99.90;;;;;;4974429;28;20085;-93
2022/11/02 11:52:54;;;;;;;;;;;;;;;;;;;;;
2022/11/02 11:55:58;;;;;;;3.20;0.38;;;13.30;99.90;;;;;;4915969;29;20147;-92
2022/11/02 11:59:21;;;;;;;2.67;0.22;;;13.20;99.90;;;;;;4915848;29;20191;-91
2022/11/02 12:02:22;;;;;;;1.15;0.20;;;13.20;99.90;;;;;;4899818;29;20052;-92
2022/11/02 12:05:23;;;;;;;5.68;0.40;;;13.30;99.90;;;;;;4915421;29;20040;-93
2022/11/02 12:08:50;;;;;;;2.40;0.30;;;13.20;99.90;;;;;;4915901;29;20421;-93
2022/11/02 12:12:32;;;;;;;;;;;;;;;;;;;;;
2022/11/02 12:15:57;;;;;;;3.90;0.40;;;13.60;99.90;;;;;;4857390;29;20110;-90
2022/11/02 12:19:23;;;;;;;0.75;0.20;;;13.90;99.90;;;;;;4853303;29;20137;-94
2022/11/02 12:22:41;;;;;;;1.83;0.35;;;14.10;99.90;;;;;;4855102;29;20077;-92
2022/11/02 12:26:09;;;;;;;2.58;0.75;;;14.30;99.90;;;;;;4858185;29;20052;-93
2022/11/02 12:29:24;;;;;;;1.73;0.43;;;14.40;99.90;;;;;;4902617;29;20059;-89
2022/11/02 12:32:32;;;;;;;1.75;0.38;;;14.50;99.90;;;;;;4915834;29;20064;-91
2022/11/02 12:35:35;;;;;;;1.58;0.43;;;14.50;99.90;;;;;;4918841;29;20501;-92
2022/11/02 12:38:54;;;;;;;1.45;0.30;;;14.50;99.90;;;;;;4918260;29;20123;-90
2022/11/02 12:41:58;;;;;;;1.95;0.47;;;14.50;99.90;;;;;;4902070;29;20044;-89
2022/11/02 12:45:06;;;;;;;1.88;0.20;;;14.60;99.90;;;;;;4916452;28;20048;-93
2022/11/02 12:48:26;;;;;;;;;;;;;;;;;;;;;
2022/11/02 12:51:26;;;;;;;3.10;0.30;;;14.70;99.90;;;;;;4973658;28;20158;-90
2022/11/02 12:54:44;;;;;;;3.33;0.50;;;14.70;99.90;;;;;;4973620;28;20412;-90
2022/11/02 12:58:03;;;;;;;;;;;;;;;;;;;;;
2022/11/02 13:00:59;;;;;;;3.35;0.30;;;14.80;99.90;;;;;;4972266;28;20042;-92
2022/11/02 13:04:38;;;;;;;;;;;;;;;;;;;;;
2022/11/02 13:07:48;;;;;;;;;;;;;;;;;;;;;
2022/11/02 13:11:08;;;;;;;;;;;;;;;;;;;;;
2022/11/02 13:14:47;;;;;;;3.42;0.47;;;14.80;99.90;;;;;;4896343;29;20044;-92
2022/11/02 13:18:04;;;;;;;3.50;0.47;;;14.80;99.90;;;;;;4924700;28;20063;-91
2022/11/02 13:21:04;;;;;;;1.55;0.40;;;14.70;99.90;;;;;;4917800;29;20075;-93
2022/11/02 13:24:06;;;;;;;2.15;0.35;;;14.70;99.90;;;;;;4915060;29;20132;-90
2022/11/02 13:27:08;;;;;;;;;;;;;;;;;;;;;
2022/11/02 13:29:56;;;;;;;4.47;0.32;;;14.60;99.90;;;;;;4910278;29;20536;-92
2022/11/02 13:33:09;;;;;;;2.67;0.20;;;14.60;99.90;;;;;;4920939;29;20100;-91
2022/11/02 13:36:04;;;;;;;1.80;0.30;;;14.30;99.90;;;;;;4910972;29;20048;-91
2022/11/02 13:39:01;;;;;;;;;;;14.20;99.90;;;;;;4902622;29;20055;-91
2022/11/02 13:42:06;;;;;;;4.38;0.68;;;14.20;99.90;;;;;;4903769;29;20016;-92
2022/11/02 13:45:27;;;;;;;2.45;0.28;;;14.20;99.90;;;;;;4967591;28;20090;-91
2022/11/02 13:49:03;;;;;;;;;;;;;;;;;;;;;
2022/11/02 13:52:13;;;;;;;7.63;0.60;;;14.30;99.90;;;;;;4975833;28;20035;-89
2022/11/02 13:55:19;;;;;;;;;;;;;;;;;;;;;
2022/11/02 13:58:38;;;;;;;3.88;0.50;;;14.30;99.90;;;;;;4969639;28;20098;-93
2022/11/02 14:01:39;;;;;;;;;;;;;;;;;;;;;
2022/11/02 14:04:50;;;;;;;;;;;;;;;;;;;;;
2022/11/02 14:08:03;;;;;;;4.68;0.20;;;14.20;99.90;;;;;;4973830;28;20054;-90
2022/11/02 14:11:04;;;;;;;1.35;0.35;;;14.10;99.90;;;;;;4973926;28;20046;-91
2022/11/02 14:13:57;;;;;;;3.08;0.35;;;14.00;99.90;;;;;;4975478;28;20407;-89
2022/11/02 14:16:56;;;;;;;1.35;0.25;;;14.00;99.90;;;;;;4987281;28;20050;-92
2022/11/02 14:20:05;;;;;;;3.90;0.63;;;13.90;99.90;;;;;;4975239;28;20043;-90
2022/11/02 14:22:51;;;;;;;1.90;0.38;;;13.90;99.90;;;;;;4974008;28;20069;-92
2022/11/02 14:26:13;;;;;;;;;;;;;;;;;;;;;
2022/11/02 14:29:26;;;;;;;3.75;0.30;;;13.80;99.90;;;;;;4975538;28;19930;-90
2022/11/02 14:32:33;;;;;;;6.57;0.60;;;13.80;99.90;;;;;;4967251;28;20039;-91
2022/11/02 14:36:01;;;;;;;;;;;;;;;;;;;;;
2022/11/02 14:39:08;;;;;;;1.45;0.40;;;13.70;99.90;;;;;;4971370;28;20050;-88
2022/11/02 14:42:20;;;;;;;3.95;0.30;;;13.60;99.90;;;;;;4973580;28;20074;-88
2022/11/02 14:45:21;;;;;;;;;;;;;;;;;;;;;
2022/11/02 14:48:40;;;;;;;5.25;0.30;;;13.60;99.90;;;;;;4962713;28;20408;-90
2022/11/02 14:51:39;;;;;;;5.65;0.40;;;13.50;99.90;;;;;;4966307;28;20058;-89
2022/11/02 14:54:55;;;;;;;3.35;0.50;;;13.50;99.90;;;;;;4966124;28;20506;-92
2022/11/02 14:57:58;;;;;;;3.30;0.30;;;13.50;99.90;;;;;;4979469;28;20039;-91
2022/11/02 15:01:10;;;;;;;2.33;0.32;;;12.80;99.90;;;;;;4969292;28;20059;-91
2022/11/02 15:04:08;;;;;;;;;;;;;;;;;;;;;
2022/11/02 15:07:11;;;;;;;3.60;0.35;;;13.30;99.90;;;;;;4975676;28;20062;-90
2022/11/02 15:10:11;;;;;;;5.78;0.40;;;13.20;99.90;;;;;;4975083;28;20193;-93
2022/11/02 15:13:33;;;;;;;;;;;;;;;;;;;;;
2022/11/02 15:16:33;;;;;;;4.25;0.30;;;13.10;99.90;;;;;;4953804;29;20090;-92
2022/11/02 15:19:42;;;;;;;4.93;0.60;;;13.10;99.90;;;;;;4938077;29;20098;-90
2022/11/02 15:23:00;;;;;;;;;;;;;;;;;;;;;
2022/11/02 15:26:00;;;;;;;4.53;0.50;;;12.90;99.90;;;;;;4955258;28;20038;-89
2022/11/02 15:28:44;;;;;;;5.97;0.60;;;12.90;99.90;;;;;;4937608;29;20079;-87
2022/11/02 15:31:18;;;;;;;4.35;0.35;;;12.90;99.90;;;;;;4953188;29;20078;-91
2022/11/02 15:34:15;;;;;;;2.10;0.28;;;12.80;99.90;;;;;;4953593;29;20102;-91
2022/11/02 15:37:42;;;;;;;4.18;0.60;;;12.70;99.90;;;;;;4938393;29;20049;-87
2022/11/02 15:41:06;;;;;;;2.47;0.20;;;12.60;99.90;;;;;;4942822;29;20047;-89
2022/11/02 15:44:08;;;;;;;3.10;0.40;;;12.50;99.90;;;;;;4859858;29;20057;-91
2022/11/02 15:47:12;;;;;;;1.35;0.22;;;12.50;99.90;;;;;;4838443;29;20046;-90
2022/11/02 15:50:16;;;;;;;1.08;0.30;;;12.20;99.90;;;;;;4864211;29;20058;-92
2022/11/02 15:53:34;;;;;;;;;;;;;;;;;;;;;
2022/11/02 15:57:13;;;;;;;2.58;0.40;;;12.30;99.90;;;;;;4805350;29;20061;-93
2022/11/02 16:00:22;;;;;;;4.43;0.50;;;12.20;99.90;;;;;;4780515;29;20054;-86
2022/11/02 16:03:20;;;;;;;2.55;0.47;;;12.00;99.90;;;;;;4796992;29;20124;-87
2022/11/02 16:06:17;;;;;;;9.57;0.50;;;12.00;99.90;;;;;;4813336;29;20057;-92
2022/11/02 16:09:37;;;;;;;;;;;;;;;;;;;;;
2022/11/02 16:13:10;;;;;;;4.10;0.70;;;12.20;99.90;;;;;;4803533;29;20057;-89
2022/11/02 16:15:53;;;;;;;;;;;11.90;99.90;;;;;;4793061;29;20054;-92
2022/11/02 16:18:56;;;;;;;4.85;0.85;;;11.90;99.90;;;;;;4792629;29;20442;-90
2022/11/02 16:22:09;;;;;;;6.15;0.68;;;11.20;99.90;;;;;;4851151;29;20081;-90
2022/11/02 16:25:19;;;;;;;5.63;0.73;;;12.70;99.90;;;;;;4854309;29;20061;-92
2022/11/02 16:28:24;;;;;;;8.18;0.90;;;11.80;99.90;;;;;;4887053;29;20471;-93
2022/11/02 16:31:44;;;;;;;5.18;1.05;;;11.90;99.90;;;;;;4947302;28;20061;-88
2022/11/02 16:35:24;;;;;;;;;;;;;;;;;;;;;
2022/11/02 16:38:35;;;;;;;;;;;;;;;;;;;;;
2022/11/02 16:41:56;;;;;;;;;;;;;;;;;;;;;
2022/11/02 16:45:32;;;;;;;2.28;0.40;;;11.60;99.90;;;;;;4981012;28;20182;-87
2022/11/02 16:48:40;;;;;;;6.53;0.50;;;11.60;99.90;;;;;;5000794;23;20043;-87
2022/11/02 16:52:30;;;;;;;;;;;;;;;;;;;;;
2022/11/02 16:55:44;;;;;;;3.92;0.63;;;11.80;99.90;;;;;;4999766;28;20517;-89
2022/11/02 16:58:21;;;;;;;5.47;0.88;;;11.40;99.90;;;;;;4996036;28;20061;-89
2022/11/02 17:01:36;;;;;;;2.38;0.50;;;11.40;99.90;;;;;;4995358;28;20061;-91
2022/11/02 17:04:24;;;;;;;2.15;0.80;;;11.30;99.90;;;;;;4954653;28;20094;-90
2022/11/02 17:07:12;;;;;;;5.60;0.60;;;11.20;99.90;;;;;;4976113;28;20435;-91
2022/11/02 17:09:42;;;;;;;4.63;0.80;;;11.20;99.90;;;;;;4958007;28;20042;-87
2022/11/02 17:12:30;;;;;;;3.05;0.73;;;11.20;99.90;;;;;;4982995;28;20054;-88
2022/11/02 17:15:21;;;;;;;2.55;0.40;;;11.10;99.90;;;;;;4956339;28;20145;-90
2022/11/02 17:21:38;;;;;;;4.40;0.32;;;11.00;99.90;;;;;;4960561;23;20039;-93
2022/11/02 17:25:00;;;;;;;4.22;0.60;;;11.00;99.90;;;;;;4995415;28;20137;-90
2022/11/02 17:28:26;;;;;;;;;;;;;;;;;;;;;
2022/11/02 17:31:42;;;;;;;2.25;0.52;;;10.90;99.90;;;;;;4996728;28;19925;-88
2022/11/02 17:39:08;;;;;;;;;;;;;;;;;;;;;
2022/11/02 17:45:59;;;;;;;3.40;0.30;;;10.70;99.90;;;;;;4953919;29;20059;-90
2022/11/02 17:49:18;;;;;;;;;;;;;;;;;;;;;
2022/11/02 17:52:52;;;;;;;;;;;;;;;;;;;;;
2022/11/02 17:56:28;;;;;;;;;;;;;;;;;;;;;
2022/11/02 17:59:17;;;;;;;0.75;0.40;;;9.70;99.90;;;;;;4952972;29;20138;-88
2022/11/02 18:01:55;;;;;;;0.60;0.30;;;10.30;99.90;;;;;;4951150;29;20208;-88
2022/11/02 18:09:32;;;;;;;;;;;;;;;;;;;;;
2022/11/02 18:17:05;;;;;;;;;;;;;;;;;;;;;
2022/11/02 18:20:18;;;;;;;1.48;0.30;;;10.10;99.90;;;;;;4859980;29;20042;-89
2022/11/02 18:23:40;;;;;;;;;;;;;;;;;;;;;
2022/11/02 18:27:06;;;;;;;3.75;0.40;;;10.00;99.90;;;;;;4877941;29;21343;-88
2022/11/02 18:30:31;;;;;;;;;;;;;;;;;;;;;
2022/11/02 18:34:02;;;;;;;3.05;0.82;;;10.10;99.90;;;;;;4875331;29;20053;-89
2022/11/02 18:37:15;;;;;;;2.00;0.30;;;10.00;99.90;;;;;;4877778;29;20546;-89
2022/11/02 18:40:04;;;;;;;2.58;0.70;;;10.00;99.90;;;;;;4860126;29;20057;-90
2022/11/02 18:43:43;;;;;;;;;;;;;;;;;;;;;
2022/11/02 18:54:55;;;;;;;;;;;;;;;;;;;;;
2022/11/02 18:58:45;;;;;;;;;;;;;;;;;;;;;
2022/11/02 19:09:35;;;;;;;4.07;0.50;;;10.60;99.90;;;;;;4794954;29;20046;-89
2022/11/02 19:13:21;;;;;;;2.92;0.40;;;10.10;99.90;;;;;;3837767;27;35797253;-90
2022/11/02 19:16:56;;;;;;;1.58;0.40;;;10.20;99.90;;;;;;4962739;28;20519;-90
2022/11/02 19:20:31;;;;;;;;;;;;;;;;;;;;;
2022/11/02 19:24:11;;;;;;;;;;;;;;;;;;;;;
2022/11/02 19:31:45;;;;;;;;;;;;;;;;;;;;;
2022/11/02 19:42:41;;;;;;;;;;;;;;;;;;;;;
2022/11/02 19:49:37;;;;;;;;;;;;;;;;;;;;;
2022/11/02 19:53:12;;;;;;;7.57;1.27;;;10.40;99.90;;;;;;4858398;29;20515;-90
2022/11/02 19:56:54;;;;;;;3.45;0.73;;;11.00;99.90;;;;;;4856401;29;20511;-91
2022/11/02 20:11:59;;;;;;;3.33;0.70;;;10.60;99.90;;;;;;5179044;22;20135;-88
2022/11/02 20:15:10;;;;;;;6.40;1.00;;;10.50;99.90;;;;;;5090140;28;20033;-88
2022/11/02 20:18:11;;;;;;;5.93;0.80;;;10.60;99.90;;;;;;5070910;28;20080;-88
2022/11/02 20:20:51;;;;;;;5.57;0.60;;;10.60;99.90;;;;;;5075095;28;20116;-91
2022/11/02 20:23:35;;;;;;;4.07;0.82;;;10.70;99.90;;;;;;5058843;28;20478;-92
2022/11/02 20:26:13;;;;;;;4.95;0.65;;;10.70;99.90;;;;;;5050007;28;20049;-87
2022/11/02 20:33:09;;;;;;;6.50;0.65;;;10.70;99.90;;;;;;4973779;28;20222;-89
2022/11/02 20:36:11;;;;;;;2.05;0.55;;;10.80;99.90;;;;;;4970055;28;20101;-88
2022/11/02 20:39:13;;;;;;;8.63;0.88;;;10.80;99.90;;;;;;4962226;28;20115;-87
2022/11/02 20:42:44;;;;;;;;;;;;;;;;;;;;;
2022/11/02 20:46:18;;;;;;;;;;;;;;;;;;;;;
2022/11/02 20:49:27;;;;;;;6.75;0.73;;;10.80;99.90;;;;;;4994058;28;20513;-88
2022/11/02 20:52:46;;;;;;;5.25;0.82;;;11.00;99.90;;;;;;4983168;28;20121;-92
2022/11/02 20:56:23;;;;;;;4.97;0.50;;;10.80;99.90;;;;;;4993973;28;20463;-89
2022/11/02 20:59:46;;;;;;;;;;;;;;;;;;;;;
2022/11/02 21:03:14;;;;;;;;;;;;;;;;;;;;;
2022/11/02 21:06:28;;;;;;;6.20;1.05;;;10.80;99.90;;;;;;5054605;28;20491;-89
2022/11/02 21:09:32;;;;;;;;;;;;;;;;;;;;;
2022/11/02 21:16:26;;;;;;;4.15;0.60;;;10.80;99.90;;;;;;5036032;28;20049;-88
2022/11/02 21:19:51;;;;;;;2.75;0.40;;;10.80;99.90;;;;;;5062435;28;20051;-89